createdAt,value
2018-06-23T00:02:22.444Z,86.00
2018-06-23T00:04:50.610Z,86.43
2018-06-23T00:07:18.791Z,86.82
2018-06-23T00:09:46.970Z,86.96
2018-06-23T00:12:15.126Z,87.38
2018-06-23T00:14:43.290Z,87.13
2018-06-23T00:17:11.474Z,87.24
2018-06-23T00:19:39.640Z,87.28
2018-06-23T00:22:07.847Z,86.86
2018-06-23T00:24:36.019Z,87.24
2018-06-23T00:27:04.247Z,87.26
2018-06-23T00:29:32.418Z,87.24
2018-06-23T00:32:00.598Z,87.07
2018-06-23T00:34:28.778Z,86.97
2018-06-23T00:36:56.951Z,87.13
2018-06-23T00:39:25.122Z,87.24
2018-06-23T00:41:53.274Z,87.68
2018-06-23T00:44:27.890Z,87.76
2018-06-23T00:46:56.055Z,88.00
2018-06-23T00:49:30.755Z,88.44
2018-06-23T00:51:58.923Z,88.08
2018-06-23T00:54:27.094Z,88.86
2018-06-23T00:56:55.306Z,88.62
2018-06-23T00:59:34.771Z,87.45
2018-06-23T01:02:02.990Z,88.26
2018-06-23T01:04:31.189Z,88.20
2018-06-23T01:06:59.387Z,88.68
2018-06-23T01:09:27.701Z,88.66
2018-06-23T01:11:56.342Z,88.97
2018-06-23T01:14:24.495Z,89.10
2018-06-23T01:16:52.714Z,89.53
2018-06-23T01:19:20.906Z,89.65
2018-06-23T01:21:49.111Z,89.97
2018-06-23T01:24:17.288Z,90.47
2018-06-23T01:26:45.502Z,90.59
2018-06-23T01:29:13.676Z,90.99
2018-06-23T01:31:41.847Z,91.06
2018-06-23T01:34:10.031Z,90.64
2018-06-23T01:36:38.178Z,90.94
2018-06-23T01:39:08.946Z,90.95
2018-06-23T01:41:37.127Z,91.13
2018-06-23T01:44:05.599Z,91.33
2018-06-23T01:46:33.784Z,91.12
2018-06-23T01:49:02.016Z,91.85
2018-06-23T01:51:30.153Z,92.00
2018-06-23T01:53:58.327Z,92.09
2018-06-23T01:56:26.527Z,92.22
2018-06-23T01:58:54.750Z,92.29
2018-06-23T02:01:22.927Z,92.34
2018-06-23T02:03:51.094Z,92.19
2018-06-23T02:06:19.271Z,92.58
2018-06-23T02:08:47.566Z,92.67
2018-06-23T02:11:15.827Z,92.96
2018-06-23T02:13:43.987Z,92.80
2018-06-23T02:16:17.438Z,93.06
2018-06-23T02:18:50.970Z,93.36
2018-06-23T02:21:24.562Z,93.52
2018-06-23T02:23:58.034Z,93.70
2018-06-23T02:26:31.659Z,93.93
2018-06-23T02:29:05.194Z,94.21
2018-06-23T02:31:38.694Z,93.95
2018-06-23T02:34:12.228Z,93.81
2018-06-23T02:36:40.403Z,94.42
2018-06-23T02:39:09.467Z,94.11
2018-06-23T02:41:37.665Z,93.95
2018-06-23T02:44:05.818Z,94.13
2018-06-23T02:46:33.993Z,95.16
2018-06-23T02:49:02.155Z,95.04
2018-06-23T02:51:30.356Z,95.18
2018-06-23T02:53:58.513Z,95.17
2018-06-23T02:56:26.675Z,95.16
2018-06-23T02:58:54.847Z,95.61
2018-06-23T03:01:23.023Z,95.15
2018-06-23T03:03:51.187Z,95.52
2018-06-23T03:06:19.414Z,94.48
2018-06-23T03:08:47.594Z,95.04
2018-06-23T03:11:15.774Z,95.16
2018-06-23T03:13:43.948Z,94.88
2018-06-23T03:16:12.115Z,94.64
2018-06-23T03:18:40.295Z,94.60
2018-06-23T03:21:08.467Z,94.95
2018-06-23T03:23:36.647Z,95.25
2018-06-23T03:26:04.855Z,96.24
2018-06-23T03:28:33.027Z,96.23
2018-06-23T03:31:01.203Z,96.57
2018-06-23T03:33:29.380Z,96.29
2018-06-23T03:35:57.555Z,96.38
2018-06-23T03:38:25.750Z,96.10
2018-06-23T03:40:53.920Z,96.13
2018-06-23T03:43:22.078Z,96.04
2018-06-23T03:45:50.271Z,96.62
2018-06-23T03:48:18.439Z,95.84
2018-06-23T03:50:46.599Z,96.31
2018-06-23T03:53:15.003Z,96.26
2018-06-23T03:55:43.166Z,96.14
2018-06-23T03:58:11.338Z,95.55
2018-06-23T04:00:43.819Z,95.69
2018-06-23T04:03:11.992Z,95.57
2018-06-23T04:05:45.355Z,95.23
2018-06-23T04:08:13.692Z,95.65
2018-06-23T04:10:41.892Z,95.39
2018-06-23T04:13:10.059Z,95.72
2018-06-23T04:15:38.222Z,95.72
2018-06-23T04:18:06.443Z,96.01
2018-06-23T04:20:34.599Z,95.85
2018-06-23T04:23:02.759Z,95.22
2018-06-23T04:25:30.927Z,95.22
2018-06-23T04:27:59.088Z,95.34
2018-06-23T04:30:28.294Z,95.10
2018-06-23T04:32:56.459Z,94.78
2018-06-23T04:35:24.686Z,94.69
2018-06-23T04:37:52.895Z,95.20
2018-06-23T04:40:21.062Z,95.01
2018-06-23T04:42:49.339Z,94.68
2018-06-23T04:45:17.534Z,94.96
2018-06-23T04:47:45.738Z,94.89
2018-06-23T04:50:13.902Z,93.95
2018-06-23T04:52:42.066Z,94.12
2018-06-23T04:55:10.243Z,94.19
2018-06-23T04:57:38.411Z,93.15
2018-06-23T05:00:06.623Z,93.54
2018-06-23T05:02:34.830Z,92.94
2018-06-23T05:05:03.010Z,93.04
2018-06-23T05:07:31.204Z,92.96
2018-06-23T05:09:59.395Z,93.45
2018-06-23T05:12:27.628Z,92.70
2018-06-23T05:14:55.758Z,93.06
2018-06-23T05:17:23.935Z,92.63
2018-06-23T05:19:58.694Z,91.76
2018-06-23T05:22:26.852Z,91.44
2018-06-23T05:24:55.042Z,90.19
2018-06-23T05:27:23.232Z,89.46
2018-06-23T05:29:51.399Z,88.68
2018-06-23T05:32:19.566Z,87.27
2018-06-23T05:34:47.734Z,86.04
2018-06-23T05:37:15.914Z,85.69
2018-06-23T05:39:44.079Z,86.07
2018-06-23T05:42:12.254Z,86.15
2018-06-23T05:44:41.230Z,85.87
2018-06-23T05:47:09.407Z,85.23
2018-06-23T05:49:37.582Z,84.67
2018-06-23T05:52:05.747Z,85.15
2018-06-23T05:54:33.906Z,84.36
2018-06-23T05:57:02.371Z,82.67
2018-06-23T05:59:30.574Z,81.67
2018-06-23T06:01:58.759Z,80.95
2018-06-23T06:04:26.930Z,81.72
2018-06-23T06:06:55.100Z,79.91
2018-06-23T06:09:23.283Z,80.14
2018-06-23T06:11:51.481Z,80.34
2018-06-23T06:14:19.678Z,78.42
2018-06-23T06:17:23.985Z,78.11
2018-06-23T06:19:53.848Z,78.14
2018-06-23T06:22:22.890Z,78.45
2018-06-23T06:24:51.080Z,78.09
2018-06-23T06:27:19.263Z,79.02
2018-06-23T06:29:47.414Z,78.77
2018-06-23T06:32:15.582Z,79.79
2018-06-23T06:34:43.754Z,79.58
2018-06-23T06:37:11.919Z,79.56
2018-06-23T06:39:40.944Z,79.54
2018-06-23T06:42:09.108Z,79.20
2018-06-23T06:44:37.349Z,79.22
2018-06-23T06:47:05.475Z,79.29
2018-06-23T06:49:33.659Z,79.66
2018-06-23T06:52:01.827Z,79.71
2018-06-23T06:54:30.067Z,79.44
2018-06-23T06:56:58.255Z,80.29
2018-06-23T06:59:26.439Z,80.54
2018-06-23T07:01:54.687Z,81.82
2018-06-23T07:04:22.863Z,80.45
2018-06-23T07:06:51.455Z,80.11
2018-06-23T07:09:19.628Z,79.97
2018-06-23T07:11:47.800Z,80.41
2018-06-23T07:14:15.980Z,80.15
2018-06-23T07:16:44.159Z,79.68
2018-06-23T07:19:12.322Z,79.27
2018-06-23T07:21:40.486Z,79.33
2018-06-23T07:24:08.710Z,78.91
2018-06-23T07:26:37.187Z,79.43
2018-06-23T07:29:06.303Z,81.96
2018-06-23T07:31:34.751Z,82.65
2018-06-23T07:34:02.906Z,83.09
2018-06-23T07:36:31.095Z,83.78
2018-06-23T07:38:59.875Z,84.53
2018-06-23T07:41:28.067Z,84.60
2018-06-23T07:43:56.240Z,84.27
2018-06-23T07:46:24.390Z,84.36
2018-06-23T07:48:53.256Z,85.13
2018-06-23T07:51:21.424Z,85.41
2018-06-23T07:53:49.607Z,85.26
2018-06-23T07:56:18.313Z,86.17
2018-06-23T07:58:46.415Z,87.17
2018-06-23T08:01:14.574Z,88.30
2018-06-23T08:03:42.751Z,90.40
2018-06-23T08:06:10.939Z,91.18
2018-06-23T08:08:39.251Z,91.85
2018-06-23T08:11:07.411Z,89.80
2018-06-23T08:13:35.578Z,89.46
2018-06-23T08:16:03.742Z,86.92
2018-06-23T08:18:31.981Z,84.94
2018-06-23T08:21:00.099Z,83.19
2018-06-23T08:23:28.261Z,81.83
2018-06-23T08:25:56.443Z,82.07
2018-06-23T08:28:24.622Z,81.18
2018-06-23T08:30:52.798Z,80.22
2018-06-23T08:33:20.962Z,78.71
2018-06-23T08:35:49.151Z,78.98
2018-06-23T08:38:17.319Z,79.09
2018-06-23T08:40:45.576Z,78.46
2018-06-23T08:43:13.738Z,78.00
2018-06-23T08:45:41.915Z,78.33
2018-06-23T08:48:10.234Z,77.64
2018-06-23T08:50:38.426Z,77.53
2018-06-23T08:53:06.600Z,76.97
2018-06-23T08:55:34.770Z,76.41
2018-06-23T08:58:02.942Z,74.77
2018-06-23T09:00:31.131Z,73.46
2018-06-23T09:02:59.363Z,73.32
2018-06-23T09:05:27.595Z,72.17
2018-06-23T09:07:55.868Z,68.97
2018-06-23T09:10:24.043Z,70.04
2018-06-23T09:12:52.283Z,70.38
2018-06-23T09:15:20.510Z,70.45
2018-06-23T09:17:48.786Z,68.92
2018-06-23T09:20:17.034Z,69.19
2018-06-23T09:22:45.275Z,67.69
2018-06-23T09:25:13.632Z,70.40
2018-06-23T09:27:41.934Z,70.35
2018-06-23T09:30:10.203Z,69.74
2018-06-23T09:32:41.256Z,72.40
2018-06-23T09:35:09.479Z,70.72
2018-06-23T09:37:37.642Z,71.86
2018-06-23T09:40:05.830Z,73.30
2018-06-23T09:42:34.154Z,72.37
2018-06-23T09:45:02.323Z,70.90
2018-06-23T09:47:30.502Z,70.76
2018-06-23T09:49:58.697Z,68.90
2018-06-23T09:52:26.874Z,65.93
2018-06-23T09:54:55.055Z,65.78
2018-06-23T09:57:23.303Z,62.71
2018-06-23T09:59:51.479Z,63.98
2018-06-23T10:02:19.647Z,65.22
2018-06-23T10:04:47.831Z,66.11
2018-06-23T10:07:16.068Z,67.70
2018-06-23T10:09:44.193Z,68.44
2018-06-23T10:12:12.363Z,69.35
2018-06-23T10:14:40.538Z,69.46
2018-06-23T10:17:08.707Z,70.44
2018-06-23T10:19:36.870Z,71.41
2018-06-23T10:22:05.158Z,70.83
2018-06-23T10:24:33.361Z,71.02
2018-06-23T10:27:01.495Z,71.09
2018-06-23T10:29:29.684Z,70.98
2018-06-23T10:31:57.862Z,72.19
2018-06-23T10:34:26.031Z,69.77
2018-06-23T10:36:54.210Z,69.38
2018-06-23T10:39:22.477Z,68.00
2018-06-23T10:41:50.902Z,66.18
2018-06-23T10:44:19.138Z,66.42
2018-06-23T10:46:47.358Z,66.86
2018-06-23T10:49:15.679Z,67.52
2018-06-23T10:51:43.886Z,67.95
2018-06-23T10:54:12.087Z,67.59
2018-06-23T10:56:40.319Z,68.61
2018-06-23T10:59:08.571Z,68.82
2018-06-23T11:01:36.699Z,69.80
2018-06-23T11:04:04.909Z,70.69
2018-06-23T11:06:33.282Z,69.88
2018-06-23T11:09:01.515Z,69.82
2018-06-23T11:11:29.695Z,69.64
2018-06-23T11:13:57.920Z,70.16
2018-06-23T11:16:26.163Z,71.14
2018-06-23T11:18:54.373Z,70.87
2018-06-23T11:21:22.575Z,73.24
2018-06-23T11:23:50.750Z,74.44
2018-06-23T11:26:18.934Z,75.00
2018-06-23T11:28:47.115Z,74.92
2018-06-23T11:31:15.299Z,72.52
2018-06-23T11:33:43.674Z,70.86
2018-06-23T11:36:11.867Z,70.92
2018-06-23T11:38:40.032Z,68.22
2018-06-23T11:41:08.244Z,69.13
2018-06-23T11:43:36.603Z,63.61
2018-06-23T11:46:04.791Z,63.88
2018-06-23T11:48:32.962Z,64.46
2018-06-23T11:51:01.130Z,63.37
2018-06-23T11:53:29.286Z,64.73
2018-06-23T11:55:57.459Z,63.74
2018-06-23T11:58:25.614Z,64.39
2018-06-23T12:00:53.774Z,65.07
2018-06-23T12:03:21.934Z,64.30
2018-06-23T12:05:50.099Z,63.75
2018-06-23T12:08:18.259Z,63.97
2018-06-23T12:10:53.040Z,65.02
2018-06-23T12:13:21.189Z,65.39
2018-06-23T12:15:49.359Z,65.50
2018-06-23T12:18:17.512Z,66.66
2018-06-23T12:20:45.699Z,67.22
2018-06-23T12:23:13.863Z,67.25
2018-06-23T12:25:42.035Z,66.56
2018-06-23T12:28:10.208Z,67.81
2018-06-23T12:30:38.370Z,66.55
2018-06-23T12:33:06.542Z,65.78
2018-06-23T12:35:34.719Z,64.78
2018-06-23T12:38:02.923Z,64.67
2018-06-23T12:40:31.080Z,63.86
2018-06-23T12:42:59.270Z,64.55
2018-06-23T12:45:27.442Z,62.61
2018-06-23T12:47:55.627Z,62.53
2018-06-23T12:50:23.790Z,61.73
2018-06-23T12:52:52.287Z,61.38
2018-06-23T12:55:21.327Z,62.19
2018-06-23T12:57:49.530Z,60.63
2018-06-23T13:00:17.703Z,62.12
2018-06-23T13:02:45.890Z,60.75
2018-06-23T13:05:14.229Z,63.57
2018-06-23T13:07:42.483Z,61.97
2018-06-23T13:10:17.035Z,60.39
2018-06-23T13:12:45.249Z,59.12
2018-06-23T13:15:13.527Z,57.80
2018-06-23T13:17:41.658Z,56.45
2018-06-23T13:20:09.971Z,57.65
2018-06-23T13:22:38.219Z,56.53
2018-06-23T13:25:06.431Z,58.73
2018-06-23T13:27:34.743Z,58.69
2018-06-23T13:30:02.943Z,58.38
2018-06-23T13:32:31.278Z,59.40
2018-06-23T13:34:59.375Z,58.81
2018-06-23T13:37:27.618Z,58.66
2018-06-23T13:39:55.987Z,58.49
2018-06-23T13:42:24.186Z,60.08
2018-06-23T13:44:52.399Z,59.34
2018-06-23T13:47:20.583Z,59.05
2018-06-23T13:49:48.778Z,58.88
2018-06-23T13:52:16.935Z,57.78
2018-06-23T13:54:45.112Z,60.08
2018-06-23T13:57:13.296Z,58.51
2018-06-23T13:59:41.481Z,61.46
2018-06-23T14:02:09.667Z,62.69
2018-06-23T14:04:37.830Z,61.83
2018-06-23T14:07:06.035Z,61.49
2018-06-23T14:09:34.215Z,60.57
2018-06-23T14:12:02.394Z,62.19
2018-06-23T14:14:30.574Z,59.86
2018-06-23T14:16:58.816Z,59.93
2018-06-23T14:19:27.006Z,62.60
2018-06-23T14:21:55.205Z,59.89
2018-06-23T14:24:23.439Z,59.51
2018-06-23T14:26:51.721Z,59.04
2018-06-23T14:29:19.871Z,57.72
2018-06-23T14:31:48.364Z,57.86
2018-06-23T14:34:16.370Z,59.73
2018-06-23T14:36:44.523Z,59.56
2018-06-23T14:39:12.710Z,58.54
2018-06-23T14:41:40.902Z,59.28
2018-06-23T14:44:09.419Z,58.92
2018-06-23T14:46:37.583Z,58.97
2018-06-23T14:49:05.843Z,59.78
2018-06-23T14:51:34.087Z,60.42
2018-06-23T14:54:02.816Z,61.45
2018-06-23T14:56:31.006Z,61.89
2018-06-23T14:58:59.394Z,61.01
2018-06-23T15:01:27.555Z,60.42
2018-06-23T15:03:56.406Z,59.21
2018-06-23T15:06:24.923Z,60.40
2018-06-23T15:09:04.975Z,60.12
2018-06-23T15:11:44.471Z,60.83
2018-06-23T15:14:12.636Z,59.69
2018-06-23T15:16:40.787Z,60.78
2018-06-23T15:19:08.990Z,59.62
2018-06-23T15:21:37.145Z,60.65
2018-06-23T15:24:05.383Z,60.92
2018-06-23T15:26:33.549Z,61.42
2018-06-23T15:29:01.917Z,61.11
2018-06-23T15:31:30.060Z,61.11
2018-06-23T15:33:58.231Z,61.89
2018-06-23T15:36:26.395Z,62.71
2018-06-23T15:38:54.570Z,63.33
2018-06-23T15:41:22.827Z,62.24
2018-06-23T15:43:50.994Z,63.20
2018-06-23T15:46:19.225Z,62.03
2018-06-23T15:48:47.428Z,62.42
2018-06-23T15:51:15.631Z,61.24
2018-06-23T15:53:43.803Z,62.11
2018-06-23T15:56:11.981Z,63.88
2018-06-23T15:58:40.143Z,61.78
2018-06-23T16:01:08.342Z,64.14
2018-06-23T16:03:36.538Z,61.98
2018-06-23T16:06:04.731Z,63.02
2018-06-23T16:08:32.931Z,63.66
2018-06-23T16:11:01.154Z,61.80
2018-06-23T16:13:29.284Z,61.18
2018-06-23T16:15:58.498Z,59.65
2018-06-23T16:18:26.666Z,59.71
2018-06-23T16:20:54.852Z,58.04
2018-06-23T16:23:23.028Z,58.68
2018-06-23T16:25:51.195Z,59.13
2018-06-23T16:28:19.342Z,59.51
2018-06-23T16:30:47.587Z,61.44
2018-06-23T16:33:15.739Z,59.46
2018-06-23T16:35:43.887Z,59.31
2018-06-23T16:38:12.047Z,60.83
2018-06-23T16:40:40.207Z,60.21
2018-06-23T16:43:08.379Z,60.95
2018-06-23T16:45:36.542Z,61.85
2018-06-23T16:48:04.839Z,61.91
2018-06-23T16:50:33.007Z,61.78
2018-06-23T16:53:01.159Z,62.78
2018-06-23T16:55:29.570Z,62.29
2018-06-23T16:57:57.728Z,63.33
2018-06-23T17:00:25.890Z,62.57
2018-06-23T17:02:54.047Z,63.20
2018-06-23T17:05:22.232Z,63.73
2018-06-23T17:07:50.394Z,63.80
2018-06-23T17:10:18.550Z,63.53
2018-06-23T17:12:46.718Z,62.16
2018-06-23T17:15:14.895Z,65.03
2018-06-23T17:17:43.024Z,63.67
2018-06-23T17:20:11.734Z,64.04
2018-06-23T17:22:39.910Z,63.53
2018-06-23T17:25:08.074Z,61.56
2018-06-23T17:27:36.258Z,61.62
2018-06-23T17:30:04.970Z,60.84
2018-06-23T17:32:33.375Z,60.36
2018-06-23T17:35:01.531Z,58.96
2018-06-23T17:37:29.719Z,59.60
2018-06-23T17:39:57.937Z,59.00
2018-06-23T17:42:26.314Z,59.95
2018-06-23T17:44:54.488Z,59.13
2018-06-23T17:47:22.658Z,58.47
2018-06-23T17:49:50.815Z,59.43
2018-06-23T17:52:19.028Z,58.25
2018-06-23T17:54:47.176Z,58.81
2018-06-23T17:57:15.473Z,60.49
2018-06-23T17:59:43.559Z,60.16
2018-06-23T18:02:11.783Z,60.84
2018-06-23T18:04:39.923Z,60.54
2018-06-23T18:07:08.126Z,60.37
2018-06-23T18:09:36.278Z,61.19
2018-06-23T18:12:04.480Z,61.67
2018-06-23T18:14:32.619Z,61.18
2018-06-23T18:17:00.806Z,62.25
2018-06-23T18:19:28.966Z,60.99
2018-06-23T18:21:57.131Z,62.45
2018-06-23T18:24:25.326Z,62.27
2018-06-23T18:26:53.486Z,61.66
2018-06-23T18:29:21.655Z,62.01
2018-06-23T18:31:49.820Z,62.31
2018-06-23T18:34:18.002Z,63.10
2018-06-23T18:36:46.174Z,62.15
2018-06-23T18:39:14.330Z,63.16
2018-06-23T18:41:42.724Z,63.16
2018-06-23T18:44:10.889Z,63.50
2018-06-23T18:46:39.063Z,63.77
2018-06-23T18:49:07.242Z,64.57
2018-06-23T18:51:35.403Z,65.13
2018-06-23T18:54:03.576Z,64.65
2018-06-23T18:56:31.744Z,64.84
2018-06-23T18:58:59.923Z,65.92
2018-06-23T19:01:28.082Z,67.79
2018-06-23T19:03:56.266Z,68.02
2018-06-23T19:06:24.471Z,69.95
2018-06-23T19:08:52.688Z,70.12
2018-06-23T19:11:20.798Z,70.42
2018-06-23T19:13:48.975Z,71.09
2018-06-23T19:16:17.179Z,72.33
2018-06-23T19:18:45.335Z,72.22
2018-06-23T19:21:13.543Z,72.55
2018-06-23T19:23:41.855Z,73.03
2018-06-23T19:26:10.169Z,73.93
2018-06-23T19:28:38.632Z,74.40
2018-06-23T19:31:06.973Z,74.37
2018-06-23T19:33:35.150Z,74.61
2018-06-23T19:36:03.351Z,75.24
2018-06-23T19:38:31.546Z,75.77
2018-06-23T19:40:59.739Z,75.42
2018-06-23T19:43:27.934Z,76.54
2018-06-23T19:45:56.103Z,76.78
2018-06-23T19:48:24.279Z,77.29
2018-06-23T19:50:52.440Z,77.29
2018-06-23T19:53:20.606Z,77.38
2018-06-23T19:55:48.825Z,77.66
2018-06-23T19:58:17.002Z,78.62
2018-06-23T20:00:45.167Z,78.20
2018-06-23T20:03:13.326Z,78.01
2018-06-23T20:05:41.502Z,78.74
2018-06-23T20:08:09.673Z,79.39
2018-06-23T20:10:37.831Z,79.17
2018-06-23T20:13:06.002Z,79.71
2018-06-23T20:15:34.159Z,80.32
2018-06-23T20:18:02.319Z,80.95
2018-06-23T20:20:30.491Z,81.49
2018-06-23T20:22:58.646Z,82.22
2018-06-23T20:25:26.808Z,82.18
2018-06-23T20:27:54.982Z,82.59
2018-06-23T20:30:23.142Z,82.73
2018-06-23T20:32:51.301Z,83.36
2018-06-23T20:35:19.471Z,83.93
2018-06-23T20:37:47.639Z,83.83
2018-06-23T20:40:15.823Z,83.92
2018-06-23T20:42:43.999Z,84.73
2018-06-23T20:45:12.171Z,84.82
2018-06-23T20:47:40.340Z,85.00
2018-06-23T20:50:08.548Z,85.17
2018-06-23T20:52:36.727Z,85.24
2018-06-23T20:55:04.911Z,85.59
2018-06-23T20:57:33.358Z,85.44
2018-06-23T21:00:01.333Z,85.23
2018-06-23T21:02:29.514Z,85.57
2018-06-23T21:04:57.706Z,86.39
2018-06-23T21:07:25.991Z,86.36
2018-06-23T21:09:54.107Z,86.33
2018-06-23T21:12:22.282Z,86.56
2018-06-23T21:14:50.451Z,86.61
2018-06-23T21:17:18.639Z,86.37
2018-06-23T21:19:46.803Z,86.51
2018-06-23T21:22:14.987Z,85.45
2018-06-23T21:24:43.162Z,85.54
2018-06-23T21:27:11.387Z,85.87
2018-06-23T21:29:39.576Z,85.97
2018-06-23T21:32:07.746Z,85.86
2018-06-23T21:34:35.910Z,86.57
2018-06-23T21:37:04.211Z,86.73
2018-06-23T21:39:32.378Z,87.07
2018-06-23T21:42:00.591Z,87.06
2018-06-23T21:44:28.758Z,87.06
2018-06-23T21:46:56.938Z,87.16
2018-06-23T21:49:25.118Z,87.11
2018-06-23T21:51:53.306Z,86.97
2018-06-23T21:54:21.482Z,87.13
2018-06-23T21:56:49.658Z,86.55
2018-06-23T21:59:17.823Z,86.58
2018-06-23T22:01:46.043Z,86.58
2018-06-23T22:04:14.219Z,85.78
2018-06-23T22:06:42.410Z,85.60
2018-06-23T22:09:11.521Z,86.21
2018-06-23T22:11:39.696Z,86.61
2018-06-23T22:14:07.875Z,86.76
2018-06-23T22:16:36.035Z,87.10
2018-06-23T22:19:04.219Z,87.40
2018-06-23T22:21:32.483Z,87.10
2018-06-23T22:24:00.619Z,86.90
2018-06-23T22:26:28.803Z,86.98
2018-06-23T22:28:56.962Z,87.14
2018-06-23T22:31:25.156Z,87.03
2018-06-23T22:33:53.317Z,86.64
2018-06-23T22:36:21.495Z,86.48
2018-06-23T22:38:49.668Z,86.69
2018-06-23T22:41:17.947Z,86.95
2018-06-23T22:43:46.139Z,87.67
2018-06-23T22:46:14.294Z,87.37
2018-06-23T22:48:42.463Z,87.66
2018-06-23T22:51:10.646Z,87.77
2018-06-23T22:53:38.814Z,87.72
2018-06-23T22:56:06.994Z,87.75
2018-06-23T22:58:35.162Z,88.12
2018-06-23T23:01:03.341Z,88.29
2018-06-23T23:03:31.528Z,88.34
2018-06-23T23:05:59.683Z,88.09
2018-06-23T23:08:27.866Z,88.36
2018-06-23T23:10:56.203Z,87.97
2018-06-23T23:13:24.372Z,88.37
2018-06-23T23:15:52.563Z,88.47
2018-06-23T23:18:20.775Z,88.61
2018-06-23T23:20:48.955Z,88.85
2018-06-23T23:23:17.123Z,89.05
2018-06-23T23:25:45.307Z,89.24
2018-06-23T23:28:13.472Z,88.92
2018-06-23T23:30:41.639Z,88.21
2018-06-23T23:33:09.888Z,88.31
2018-06-23T23:35:38.009Z,89.03
2018-06-23T23:38:06.163Z,88.99
2018-06-23T23:40:34.346Z,88.86
2018-06-23T23:43:02.519Z,88.75
2018-06-23T23:45:30.730Z,87.65
2018-06-23T23:47:58.923Z,87.56
2018-06-23T23:50:27.106Z,87.72
2018-06-23T23:52:55.302Z,87.68
2018-06-23T23:55:23.474Z,87.95
2018-06-23T23:57:51.650Z,88.58
